createdAt,value
2018-07-30T00:00:01.764Z,926.9
2018-07-30T00:00:14.874Z,926.88
2018-07-30T00:00:27.446Z,926.88
2018-07-30T00:00:40.160Z,926.87
2018-07-30T00:00:52.779Z,926.88
2018-07-30T00:01:05.403Z,926.89
2018-07-30T00:01:18.799Z,926.88
2018-07-30T00:01:31.609Z,926.87
2018-07-30T00:01:44.383Z,926.9
2018-07-30T00:01:57.146Z,926.88
2018-07-30T00:02:09.330Z,926.9
2018-07-30T00:02:22.611Z,926.87
2018-07-30T00:02:35.335Z,926.82
2018-07-30T00:02:48.557Z,926.9
2018-07-30T00:03:01.160Z,926.89
2018-07-30T00:03:14.239Z,926.86
2018-07-30T00:03:27.318Z,926.89
2018-07-30T00:03:39.615Z,926.91
2018-07-30T00:03:52.201Z,926.9
2018-07-30T00:04:05.295Z,926.89
2018-07-30T00:04:18.560Z,926.91
2018-07-30T00:04:30.842Z,926.88
2018-07-30T00:04:44.014Z,926.86
2018-07-30T00:04:57.311Z,926.88
2018-07-30T00:05:09.930Z,926.9
2018-07-30T00:05:23.492Z,926.91
2018-07-30T00:05:36.502Z,926.89
2018-07-30T00:05:49.188Z,926.88
2018-07-30T00:06:02.115Z,926.86
2018-07-30T00:06:15.306Z,926.85
2018-07-30T00:06:27.928Z,926.91
2018-07-30T00:06:41.298Z,926.89
2018-07-30T00:06:53.866Z,926.86
2018-07-30T00:07:07.056Z,926.88
2018-07-30T00:07:19.718Z,926.88
2018-07-30T00:07:32.505Z,926.88
2018-07-30T00:07:45.596Z,926.87
2018-07-30T00:07:58.807Z,926.88
2018-07-30T00:08:10.492Z,926.85
2018-07-30T00:08:23.285Z,926.9
2018-07-30T00:08:36.385Z,926.85
2018-07-30T00:08:49.784Z,926.86
2018-07-30T00:09:02.090Z,926.89
2018-07-30T00:09:14.929Z,926.87
2018-07-30T00:09:28.017Z,926.87
2018-07-30T00:09:41.314Z,926.87
2018-07-30T00:09:54.725Z,926.89
2018-07-30T00:10:07.959Z,926.87
2018-07-30T00:10:21.066Z,926.87
2018-07-30T00:10:34.170Z,926.91
2018-07-30T00:10:47.278Z,926.85
2018-07-30T00:11:00.474Z,926.89
2018-07-30T00:11:13.161Z,926.9
2018-07-30T00:11:25.610Z,926.87
2018-07-30T00:11:38.355Z,926.91
2018-07-30T00:11:50.922Z,926.91
2018-07-30T00:12:04.287Z,926.94
2018-07-30T00:12:17.331Z,926.93
2018-07-30T00:12:30.448Z,926.91
2018-07-30T00:12:43.108Z,926.94
2018-07-30T00:12:55.858Z,926.91
2018-07-30T00:13:08.563Z,926.89
2018-07-30T00:13:21.655Z,926.91
2018-07-30T00:13:34.535Z,926.87
2018-07-30T00:13:47.724Z,926.87
2018-07-30T00:14:00.489Z,926.91
2018-07-30T00:14:12.839Z,926.9
2018-07-30T00:14:26.392Z,926.89
2018-07-30T00:14:39.261Z,926.91
2018-07-30T00:14:51.900Z,926.93
2018-07-30T00:15:04.251Z,926.91
2018-07-30T00:15:17.451Z,926.91
2018-07-30T00:15:30.130Z,926.93
2018-07-30T00:15:43.390Z,926.93
2018-07-30T00:15:56.943Z,926.9
2018-07-30T00:16:08.705Z,926.91
2018-07-30T00:16:22.010Z,926.9
2018-07-30T00:16:34.700Z,926.91
2018-07-30T00:16:46.440Z,926.9
2018-07-30T00:16:59.529Z,926.91
2018-07-30T00:17:11.219Z,926.92
2018-07-30T00:17:23.840Z,926.94
2018-07-30T00:17:36.612Z,926.92
2018-07-30T00:17:48.570Z,926.89
2018-07-30T00:18:01.332Z,926.93
2018-07-30T00:18:13.486Z,926.9
2018-07-30T00:18:26.953Z,926.92
2018-07-30T00:18:40.144Z,926.91
2018-07-30T00:18:53.196Z,926.9
2018-07-30T00:19:05.829Z,926.93
2018-07-30T00:19:19.043Z,926.88
2018-07-30T00:19:31.198Z,926.9
2018-07-30T00:19:44.299Z,926.92
2018-07-30T00:19:56.986Z,926.9
2018-07-30T00:20:10.203Z,926.89
2018-07-30T00:20:22.807Z,926.92
2018-07-30T00:20:35.493Z,926.94
2018-07-30T00:20:48.836Z,926.91
2018-07-30T00:21:02.070Z,926.93
2018-07-30T00:21:14.867Z,926.91
2018-07-30T00:21:28.236Z,926.87
2018-07-30T00:21:41.540Z,926.9
2018-07-30T00:21:54.385Z,926.93
2018-07-30T00:22:07.718Z,926.89
2018-07-30T00:22:20.833Z,926.93
2018-07-30T00:22:33.454Z,926.88
2018-07-30T00:22:46.231Z,926.89
2018-07-30T00:22:58.733Z,926.94
2018-07-30T00:23:11.964Z,926.91
2018-07-30T00:23:25.064Z,926.87
2018-07-30T00:23:36.929Z,926.9
2018-07-30T00:23:50.087Z,926.87
2018-07-30T00:24:02.389Z,926.9
2018-07-30T00:24:14.601Z,926.86
2018-07-30T00:24:27.678Z,926.88
2018-07-30T00:24:40.509Z,926.88
2018-07-30T00:24:53.855Z,926.88
2018-07-30T00:25:07.065Z,926.87
2018-07-30T00:25:20.161Z,926.88
2018-07-30T00:25:32.939Z,926.88
2018-07-30T00:25:46.039Z,926.84
2018-07-30T00:25:58.958Z,926.88
2018-07-30T00:26:11.567Z,926.87
2018-07-30T00:26:24.359Z,926.91
2018-07-30T00:26:37.442Z,926.86
2018-07-30T00:26:50.183Z,926.86
2018-07-30T00:27:02.413Z,926.89
2018-07-30T00:27:15.516Z,926.91
2018-07-30T00:27:28.195Z,926.86
2018-07-30T00:27:41.443Z,926.88
2018-07-30T00:27:54.582Z,926.84
2018-07-30T00:28:07.843Z,926.9
2018-07-30T00:28:20.956Z,926.89
2018-07-30T00:28:34.089Z,926.9
2018-07-30T00:28:46.235Z,926.87
2018-07-30T00:28:59.799Z,926.91
2018-07-30T00:29:11.961Z,926.89
2018-07-30T00:29:24.579Z,926.9
2018-07-30T00:29:37.189Z,926.92
2018-07-30T00:29:49.796Z,926.96
2018-07-30T00:30:02.399Z,926.96
2018-07-30T00:30:15.114Z,926.88
2018-07-30T00:30:28.345Z,926.91
2018-07-30T00:30:41.053Z,926.91
2018-07-30T00:30:53.204Z,926.94
2018-07-30T00:31:05.791Z,926.9
2018-07-30T00:31:19.098Z,926.86
2018-07-30T00:31:32.952Z,926.9
2018-07-30T00:31:45.860Z,926.89
2018-07-30T00:31:58.940Z,926.93
2018-07-30T00:32:11.709Z,926.91
2018-07-30T00:32:24.462Z,926.94
2018-07-30T00:32:37.797Z,926.95
2018-07-30T00:32:50.879Z,926.94
2018-07-30T00:33:03.151Z,926.92
2018-07-30T00:33:15.309Z,926.9
2018-07-30T00:33:28.373Z,926.91
2018-07-30T00:33:41.619Z,926.9
2018-07-30T00:33:54.726Z,926.91
2018-07-30T00:34:07.504Z,926.93
2018-07-30T00:34:20.338Z,926.89
2018-07-30T00:34:33.520Z,926.9
2018-07-30T00:34:46.582Z,926.87
2018-07-30T00:34:59.284Z,926.89
2018-07-30T00:35:12.110Z,926.88
2018-07-30T00:35:25.262Z,926.89
2018-07-30T00:35:37.869Z,926.85
2018-07-30T00:35:50.961Z,926.91
2018-07-30T00:36:03.790Z,926.86
2018-07-30T00:36:16.875Z,926.89
2018-07-30T00:36:30.032Z,926.91
2018-07-30T00:36:43.279Z,926.9
2018-07-30T00:36:55.901Z,926.9
2018-07-30T00:37:08.042Z,926.88
2018-07-30T00:37:20.347Z,926.91
2018-07-30T00:37:33.659Z,926.88
2018-07-30T00:37:46.788Z,926.91
2018-07-30T00:37:59.425Z,926.89
2018-07-30T00:38:12.662Z,926.91
2018-07-30T00:38:25.690Z,926.92
2018-07-30T00:38:38.410Z,926.91
2018-07-30T00:38:51.533Z,926.87
2018-07-30T00:39:04.648Z,926.91
2018-07-30T00:39:16.423Z,926.93
2018-07-30T00:39:29.735Z,926.94
2018-07-30T00:39:42.348Z,926.93
2018-07-30T00:39:55.536Z,926.91
2018-07-30T00:40:08.823Z,926.91
2018-07-30T00:40:21.777Z,926.89
2018-07-30T00:40:34.866Z,926.92
2018-07-30T00:40:47.928Z,926.88
2018-07-30T00:41:00.133Z,926.91
2018-07-30T00:41:13.110Z,926.89
2018-07-30T00:41:25.961Z,926.87
2018-07-30T00:41:39.554Z,926.91
2018-07-30T00:41:52.982Z,926.89
2018-07-30T00:42:05.858Z,926.89
2018-07-30T00:42:19.086Z,926.88
2018-07-30T00:42:31.790Z,926.9
2018-07-30T00:42:44.572Z,926.91
2018-07-30T00:42:57.161Z,926.9
2018-07-30T00:43:09.809Z,926.9
2018-07-30T00:43:23.050Z,926.89
2018-07-30T00:43:35.195Z,926.89
2018-07-30T00:43:47.435Z,926.9
2018-07-30T00:44:00.489Z,926.89
2018-07-30T00:44:13.077Z,926.89
2018-07-30T00:44:25.388Z,926.92
2018-07-30T00:44:38.202Z,926.89
2018-07-30T00:44:50.498Z,926.88
2018-07-30T00:45:03.717Z,926.89
2018-07-30T00:45:16.346Z,926.91
2018-07-30T00:45:29.095Z,926.9
2018-07-30T00:45:41.826Z,926.89
2018-07-30T00:45:53.991Z,926.9
2018-07-30T00:46:06.636Z,926.92
2018-07-30T00:46:19.458Z,926.91
2018-07-30T00:46:35.343Z,926.91
2018-07-30T00:46:48.424Z,926.92
2018-07-30T00:47:01.701Z,926.88
2018-07-30T00:47:14.994Z,926.91
2018-07-30T00:47:27.732Z,926.89
2018-07-30T00:47:40.861Z,926.91
2018-07-30T00:47:54.031Z,926.93
2018-07-30T00:48:07.169Z,926.92
2018-07-30T00:48:20.370Z,926.89
2018-07-30T00:48:33.534Z,926.91
2018-07-30T00:48:46.667Z,926.94
2018-07-30T00:49:00.206Z,926.94
2018-07-30T00:49:13.285Z,926.96
2018-07-30T00:49:26.061Z,926.94
2018-07-30T00:49:39.247Z,926.96
2018-07-30T00:49:52.360Z,926.96
2018-07-30T00:50:05.111Z,926.92
2018-07-30T00:50:18.187Z,926.95
2018-07-30T00:50:31.264Z,926.97
2018-07-30T00:50:46.424Z,926.98
2018-07-30T00:50:59.107Z,926.95
2018-07-30T00:51:12.334Z,926.96
2018-07-30T00:51:25.542Z,926.97
2018-07-30T00:51:38.584Z,927
2018-07-30T00:51:51.833Z,927
2018-07-30T00:52:04.960Z,927.01
2018-07-30T00:52:18.017Z,927.05
2018-07-30T00:52:32.693Z,927.01
2018-07-30T00:52:45.782Z,926.99
2018-07-30T00:52:59.063Z,927
2018-07-30T00:53:11.206Z,927
2018-07-30T00:53:23.884Z,927.03
2018-07-30T00:53:36.489Z,927.01
2018-07-30T00:53:49.727Z,927.01
2018-07-30T00:54:01.897Z,926.99
2018-07-30T00:54:14.574Z,927.02
2018-07-30T00:54:28.206Z,927.01
2018-07-30T00:54:40.470Z,927.03
2018-07-30T00:54:53.706Z,927.04
2018-07-30T00:55:06.085Z,927.04
2018-07-30T00:55:18.257Z,927.01
2018-07-30T00:55:31.342Z,927.03
2018-07-30T00:55:43.977Z,927.01
2018-07-30T00:55:56.771Z,927.01
2018-07-30T00:56:09.891Z,926.98
2018-07-30T00:56:22.971Z,926.99
2018-07-30T00:56:35.594Z,927.03
2018-07-30T00:56:48.757Z,927.01
2018-07-30T00:57:02.504Z,926.99
2018-07-30T00:57:15.942Z,926.99
2018-07-30T00:57:28.254Z,927.02
2018-07-30T00:57:41.532Z,927.03
2018-07-30T00:57:54.200Z,927.09
2018-07-30T00:58:06.832Z,927.06
2018-07-30T00:58:19.153Z,927.04
2018-07-30T00:58:33.831Z,927.07
2018-07-30T00:58:46.649Z,927.05
2018-07-30T00:58:58.316Z,927.08
2018-07-30T00:59:10.552Z,927.07
2018-07-30T00:59:23.780Z,927.07
2018-07-30T00:59:36.480Z,927.08
2018-07-30T00:59:49.541Z,927.09
2018-07-30T01:00:02.122Z,927.07
2018-07-30T01:00:14.650Z,927.12
2018-07-30T01:00:27.323Z,927.05
2018-07-30T01:00:40.434Z,927.08
2018-07-30T01:00:52.846Z,927.07
2018-07-30T01:01:05.970Z,927.09
2018-07-30T01:01:19.049Z,927.08
2018-07-30T01:01:32.146Z,927.07
2018-07-30T01:01:45.046Z,927.09
2018-07-30T01:01:58.243Z,927.06
2018-07-30T01:02:10.409Z,927.11
2018-07-30T01:02:22.688Z,927.11
2018-07-30T01:02:35.001Z,927.1
2018-07-30T01:02:48.150Z,927.06
2018-07-30T01:03:00.295Z,927.08
2018-07-30T01:03:13.104Z,927.07
2018-07-30T01:03:26.204Z,927.09
2018-07-30T01:03:39.494Z,927.08
2018-07-30T01:03:51.873Z,927.07
2018-07-30T01:04:04.531Z,927.08
2018-07-30T01:04:17.529Z,927.06
2018-07-30T01:04:30.623Z,927.06
2018-07-30T01:04:43.720Z,927.05
2018-07-30T01:04:56.807Z,927.02
2018-07-30T01:05:10.071Z,927.1
2018-07-30T01:05:22.881Z,927.08
2018-07-30T01:05:35.958Z,927.06
2018-07-30T01:05:49.130Z,927.06
2018-07-30T01:06:02.288Z,927.05
2018-07-30T01:06:17.408Z,927.06
2018-07-30T01:06:30.512Z,927.04
2018-07-30T01:06:43.652Z,927.07
2018-07-30T01:06:56.751Z,927.02
2018-07-30T01:07:09.046Z,926.99
2018-07-30T01:07:22.179Z,927.01
2018-07-30T01:07:35.611Z,927.03
2018-07-30T01:07:49.344Z,927
2018-07-30T01:08:02.514Z,927.05
2018-07-30T01:08:15.124Z,927
2018-07-30T01:08:28.445Z,927.04
2018-07-30T01:08:41.193Z,927.04
2018-07-30T01:08:54.081Z,927.04
2018-07-30T01:09:06.573Z,927.02
2018-07-30T01:09:19.439Z,927.02
2018-07-30T01:09:32.573Z,927.04
2018-07-30T01:09:45.674Z,927.02
2018-07-30T01:09:57.838Z,927.01
2018-07-30T01:10:11.010Z,926.99
2018-07-30T01:10:25.730Z,927.01
2018-07-30T01:10:38.836Z,927.02
2018-07-30T01:10:51.677Z,927.02
2018-07-30T01:11:04.607Z,926.98
2018-07-30T01:11:17.885Z,926.99
2018-07-30T01:11:31.088Z,927
2018-07-30T01:11:44.595Z,927.01
2018-07-30T01:11:57.707Z,927
2018-07-30T01:12:10.973Z,927
2018-07-30T01:12:23.833Z,926.98
2018-07-30T01:12:37.057Z,927.01
2018-07-30T01:12:49.789Z,927
2018-07-30T01:13:02.615Z,927
2018-07-30T01:13:15.266Z,926.99
2018-07-30T01:13:28.217Z,926.99
2018-07-30T01:13:40.856Z,926.99
2018-07-30T01:13:54.104Z,926.98
2018-07-30T01:14:07.204Z,927
2018-07-30T01:14:20.599Z,927.02
2018-07-30T01:14:33.616Z,926.99
2018-07-30T01:14:46.441Z,926.97
2018-07-30T01:14:59.539Z,927.01
2018-07-30T01:15:12.178Z,926.99
2018-07-30T01:15:24.799Z,927.03
2018-07-30T01:15:38.109Z,926.98
2018-07-30T01:15:50.743Z,927.01
2018-07-30T01:16:03.384Z,927
2018-07-30T01:16:16.497Z,926.96
2018-07-30T01:16:30.006Z,926.98
2018-07-30T01:16:43.776Z,926.98
2018-07-30T01:16:57.062Z,927
2018-07-30T01:17:09.280Z,927
2018-07-30T01:17:22.588Z,926.97
2018-07-30T01:17:35.276Z,927.01
2018-07-30T01:17:48.525Z,927
2018-07-30T01:18:00.689Z,927.03
2018-07-30T01:18:12.831Z,927
2018-07-30T01:18:26.123Z,927
2018-07-30T01:18:38.813Z,927.01
2018-07-30T01:18:51.922Z,926.98
2018-07-30T01:19:04.773Z,927.01
2018-07-30T01:19:17.530Z,927.03
2018-07-30T01:19:30.261Z,927.03
2018-07-30T01:19:42.470Z,927.05
2018-07-30T01:19:54.624Z,927
2018-07-30T01:20:06.385Z,927.04
2018-07-30T01:20:19.523Z,927.02
2018-07-30T01:20:33.095Z,927.03
2018-07-30T01:20:45.552Z,927.04
2018-07-30T01:20:58.264Z,927.07
2018-07-30T01:21:10.460Z,927.09
2018-07-30T01:21:23.251Z,927.06
2018-07-30T01:21:36.750Z,927.09
2018-07-30T01:21:49.633Z,927.07
2018-07-30T01:22:02.242Z,927.05
2018-07-30T01:22:14.415Z,927.07
2018-07-30T01:22:27.194Z,927.09
2018-07-30T01:22:40.307Z,927.03
2018-07-30T01:22:53.393Z,927.07
2018-07-30T01:23:06.460Z,927.05
2018-07-30T01:23:19.722Z,927.05
2018-07-30T01:23:32.731Z,927.08
2018-07-30T01:23:47.121Z,927.07
2018-07-30T01:24:00.370Z,927.08
2018-07-30T01:24:12.690Z,927.05
2018-07-30T01:24:25.306Z,927.06
2018-07-30T01:24:38.593Z,927.04
2018-07-30T01:24:51.801Z,927.03
2018-07-30T01:25:04.874Z,927.04
2018-07-30T01:25:17.031Z,927.01
2018-07-30T01:25:29.876Z,927.04
2018-07-30T01:25:42.617Z,927.07
2018-07-30T01:25:55.961Z,927.04
2018-07-30T01:26:08.920Z,927.03
2018-07-30T01:26:22.010Z,927.04
2018-07-30T01:26:35.333Z,927.03
2018-07-30T01:26:48.580Z,927.02
2018-07-30T01:27:01.858Z,927.05
2018-07-30T01:27:14.229Z,927.02
2018-07-30T01:27:27.480Z,927.04
2018-07-30T01:27:40.692Z,927.03
2018-07-30T01:27:53.750Z,927.02
2018-07-30T01:28:06.126Z,927.01
2018-07-30T01:28:18.966Z,927.01
2018-07-30T01:28:31.590Z,927.01
2018-07-30T01:28:44.764Z,927.03
2018-07-30T01:28:58.049Z,927.03
2018-07-30T01:29:10.886Z,927.04
2018-07-30T01:29:23.507Z,927.01
2018-07-30T01:29:36.802Z,927.02
2018-07-30T01:29:49.861Z,927.02
2018-07-30T01:30:02.937Z,927.02
2018-07-30T01:30:15.549Z,927.06
2018-07-30T01:30:28.150Z,927.02
2018-07-30T01:30:41.245Z,927.03
2018-07-30T01:30:54.361Z,927.04
2018-07-30T01:31:07.421Z,927.05
2018-07-30T01:31:20.091Z,926.99
2018-07-30T01:31:33.375Z,927.06
2018-07-30T01:31:47.180Z,927.02
2018-07-30T01:32:00.477Z,927.02
2018-07-30T01:32:13.135Z,927.03
2018-07-30T01:32:26.343Z,927.06
2018-07-30T01:32:39.901Z,927.04
2018-07-30T01:32:52.736Z,927.05
2018-07-30T01:33:05.339Z,927.05
2018-07-30T01:33:18.445Z,927.05
2018-07-30T01:33:32.008Z,927.02
2018-07-30T01:33:44.638Z,927.03
2018-07-30T01:33:57.285Z,927.02
2018-07-30T01:34:10.334Z,927.04
2018-07-30T01:34:23.633Z,927.04
2018-07-30T01:34:36.723Z,927.06
2018-07-30T01:34:49.444Z,927.08
2018-07-30T01:35:02.064Z,927.04
2018-07-30T01:35:15.170Z,927.05
2018-07-30T01:35:28.472Z,927.07
2018-07-30T01:35:41.150Z,927.08
2018-07-30T01:35:53.867Z,927.06
2018-07-30T01:36:06.462Z,927.01
2018-07-30T01:36:19.118Z,927.05
2018-07-30T01:36:31.324Z,927.07
2018-07-30T01:36:43.929Z,927.04
2018-07-30T01:36:56.667Z,927.05
2018-07-30T01:37:09.652Z,927.03
2018-07-30T01:37:22.066Z,927
2018-07-30T01:37:35.177Z,927.02
2018-07-30T01:37:47.313Z,926.99
2018-07-30T01:38:00.459Z,927.02
2018-07-30T01:38:12.773Z,927.03
2018-07-30T01:38:25.455Z,927.04
2018-07-30T01:38:38.473Z,927.03
2018-07-30T01:38:51.715Z,927.03
2018-07-30T01:39:03.520Z,927.02
2018-07-30T01:39:15.881Z,927.02
2018-07-30T01:39:28.192Z,927.01
2018-07-30T01:39:40.829Z,927.03
2018-07-30T01:39:54.169Z,927.04
2018-07-30T01:40:06.323Z,927.02
2018-07-30T01:40:18.638Z,927.04
2018-07-30T01:40:31.495Z,926.97
2018-07-30T01:40:44.792Z,927
2018-07-30T01:40:58.132Z,926.99
2018-07-30T01:41:12.095Z,926.99
2018-07-30T01:41:25.174Z,927.02
2018-07-30T01:41:36.989Z,927
2018-07-30T01:41:50.514Z,927.02
2018-07-30T01:42:03.803Z,926.96
2018-07-30T01:42:17.110Z,926.99
2018-07-30T01:42:30.275Z,926.98
2018-07-30T01:42:43.497Z,927.03
2018-07-30T01:42:56.207Z,927.02
2018-07-30T01:43:09.307Z,927.04
2018-07-30T01:43:21.535Z,927.08
2018-07-30T01:43:34.784Z,927.07
2018-07-30T01:43:47.626Z,927.04
2018-07-30T01:44:00.947Z,927.04
2018-07-30T01:44:14.089Z,927.03
2018-07-30T01:44:27.476Z,927.04
2018-07-30T01:44:40.568Z,927.07
2018-07-30T01:44:53.635Z,927.02
2018-07-30T01:45:05.304Z,927.06
2018-07-30T01:45:18.173Z,927.03
2018-07-30T01:45:30.487Z,927.04
2018-07-30T01:45:43.917Z,927.06
2018-07-30T01:45:57.021Z,927.07
2018-07-30T01:46:09.377Z,927.05
2018-07-30T01:46:22.932Z,927.07
2018-07-30T01:46:36.578Z,927.05
2018-07-30T01:46:49.675Z,927.03
2018-07-30T01:47:02.435Z,927.07
2018-07-30T01:47:14.732Z,927.06
2018-07-30T01:47:27.876Z,927.06
2018-07-30T01:47:41.161Z,927.02
2018-07-30T01:47:54.136Z,927.03
2018-07-30T01:48:06.952Z,927.04
2018-07-30T01:48:21.521Z,927.04
2018-07-30T01:48:34.851Z,927.04
2018-07-30T01:48:48.132Z,927.03
2018-07-30T01:49:01.240Z,927.03
2018-07-30T01:49:13.438Z,927.05
2018-07-30T01:49:26.050Z,927.03
2018-07-30T01:49:38.182Z,927.02
2018-07-30T01:49:51.490Z,927.02
2018-07-30T01:50:04.805Z,927.07
2018-07-30T01:50:19.788Z,927.11
2018-07-30T01:50:32.987Z,927.09
2018-07-30T01:50:46.054Z,927.09
2018-07-30T01:50:58.753Z,927.02
2018-07-30T01:51:11.593Z,927.08
2018-07-30T01:51:24.696Z,927.07
2018-07-30T01:51:37.692Z,927.07
2018-07-30T01:51:50.637Z,927.06
2018-07-30T01:52:03.254Z,927.03
2018-07-30T01:52:16.354Z,927.04
2018-07-30T01:52:29.679Z,927.05
2018-07-30T01:52:42.114Z,927.05
2018-07-30T01:52:55.349Z,927.02
2018-07-30T01:53:08.463Z,927.04
2018-07-30T01:53:21.541Z,927.02
2018-07-30T01:53:34.838Z,927.04
2018-07-30T01:53:47.685Z,927
2018-07-30T01:54:00.997Z,927.03
2018-07-30T01:54:15.375Z,927.03
2018-07-30T01:54:27.077Z,927.07
2018-07-30T01:54:39.891Z,927.03
2018-07-30T01:54:52.512Z,927.07
2018-07-30T01:55:05.169Z,927.06
2018-07-30T01:55:17.957Z,927.02
2018-07-30T01:55:31.889Z,927.01
2018-07-30T01:55:44.720Z,927.02
2018-07-30T01:55:58.245Z,927.02
2018-07-30T01:56:10.933Z,927.05
2018-07-30T01:56:23.582Z,927.05
2018-07-30T01:56:36.767Z,926.96
2018-07-30T01:56:49.990Z,927.06
2018-07-30T01:57:03.297Z,927.06
2018-07-30T01:57:16.163Z,927.01
2018-07-30T01:57:29.481Z,927.05
2018-07-30T01:57:42.741Z,927.02
2018-07-30T01:57:55.764Z,927
2018-07-30T01:58:07.924Z,927
2018-07-30T01:58:21.005Z,927.02
2018-07-30T01:58:33.649Z,927.04
2018-07-30T01:58:47.173Z,926.98
2018-07-30T01:58:59.796Z,926.99
2018-07-30T01:59:12.410Z,926.97
2018-07-30T01:59:25.684Z,926.98
2018-07-30T01:59:38.327Z,926.98
2018-07-30T01:59:51.825Z,926.92
2018-07-30T02:00:04.927Z,926.95
2018-07-30T02:00:18.219Z,926.92
2018-07-30T02:00:31.457Z,926.94
2018-07-30T02:00:44.087Z,926.93
2018-07-30T02:00:57.206Z,926.93
2018-07-30T02:01:09.816Z,926.94
2018-07-30T02:01:22.011Z,926.92
2018-07-30T02:01:34.804Z,926.92
2018-07-30T02:01:47.970Z,926.92
2018-07-30T02:02:01.225Z,926.88
2018-07-30T02:02:14.530Z,926.91
2018-07-30T02:02:27.691Z,926.9
2018-07-30T02:02:39.942Z,926.9
2018-07-30T02:02:53.416Z,926.9
2018-07-30T02:03:06.469Z,926.89
2018-07-30T02:03:19.100Z,926.86
2018-07-30T02:03:31.792Z,926.88
2018-07-30T02:03:44.565Z,926.9
2018-07-30T02:03:57.792Z,926.87
2018-07-30T02:04:10.623Z,926.84
2018-07-30T02:04:23.020Z,926.86
2018-07-30T02:04:36.099Z,926.84
2018-07-30T02:04:49.212Z,926.83
2018-07-30T02:05:01.379Z,926.83
2018-07-30T02:05:14.235Z,926.84
2018-07-30T02:05:27.330Z,926.84
2018-07-30T02:05:40.415Z,926.81
2018-07-30T02:05:53.703Z,926.84
2018-07-30T02:06:06.552Z,926.86
2018-07-30T02:06:19.061Z,926.87
2018-07-30T02:06:32.148Z,926.83
2018-07-30T02:06:45.460Z,926.87
2018-07-30T02:06:59.272Z,926.88
2018-07-30T02:07:11.235Z,926.86
2018-07-30T02:07:23.849Z,926.84
2018-07-30T02:07:36.008Z,926.86
2018-07-30T02:07:49.126Z,926.84
2018-07-30T02:08:01.753Z,926.84
2018-07-30T02:08:14.442Z,926.87
2018-07-30T02:08:27.659Z,926.88
2018-07-30T02:08:40.752Z,926.9
2018-07-30T02:08:53.812Z,926.89
2018-07-30T02:09:06.882Z,926.9
2018-07-30T02:09:19.327Z,926.88
2018-07-30T02:09:31.003Z,926.85
2018-07-30T02:09:44.171Z,926.9
2018-07-30T02:09:56.933Z,926.89
2018-07-30T02:10:09.423Z,926.9
2018-07-30T02:10:22.050Z,926.86
2018-07-30T02:10:35.163Z,926.88
2018-07-30T02:10:48.250Z,926.92
2018-07-30T02:11:01.362Z,926.87
2018-07-30T02:11:13.520Z,926.9
2018-07-30T02:11:27.080Z,926.86
2018-07-30T02:11:39.936Z,926.86
2018-07-30T02:11:52.679Z,926.86
2018-07-30T02:12:05.543Z,926.91
2018-07-30T02:12:19.269Z,926.87
2018-07-30T02:12:32.262Z,926.91
2018-07-30T02:12:45.049Z,926.92
2018-07-30T02:12:57.695Z,926.89
2018-07-30T02:13:10.927Z,926.87
2018-07-30T02:13:23.657Z,926.89
2018-07-30T02:13:36.754Z,926.89
2018-07-30T02:13:49.849Z,926.88
2018-07-30T02:14:02.620Z,926.89
2018-07-30T02:14:15.857Z,926.86
2018-07-30T02:14:28.639Z,926.89
2018-07-30T02:14:42.071Z,926.9
2018-07-30T02:14:54.715Z,926.86
2018-07-30T02:15:08.089Z,926.9
2018-07-30T02:15:21.335Z,926.89
2018-07-30T02:15:34.860Z,926.91
2018-07-30T02:15:47.024Z,926.88
2018-07-30T02:16:00.344Z,926.91
2018-07-30T02:16:12.977Z,926.86
2018-07-30T02:16:26.184Z,926.85
2018-07-30T02:16:38.814Z,926.9
2018-07-30T02:16:52.199Z,926.9
2018-07-30T02:17:05.423Z,926.89
2018-07-30T02:17:18.306Z,926.89
2018-07-30T02:17:31.889Z,926.85
2018-07-30T02:17:45.437Z,926.86
2018-07-30T02:17:58.573Z,926.87
2018-07-30T02:18:10.726Z,926.87
2018-07-30T02:18:23.748Z,926.9
2018-07-30T02:18:36.898Z,926.87
2018-07-30T02:18:49.047Z,926.9
2018-07-30T02:19:01.479Z,926.9
2018-07-30T02:19:14.404Z,926.91
2018-07-30T02:19:27.714Z,926.89
2018-07-30T02:19:40.343Z,926.89
2018-07-30T02:19:53.505Z,926.89
2018-07-30T02:20:06.612Z,926.87
2018-07-30T02:20:19.720Z,926.88
2018-07-30T02:20:32.920Z,926.88
2018-07-30T02:20:45.474Z,926.89
2018-07-30T02:20:59.004Z,926.87
2018-07-30T02:21:11.147Z,926.87
2018-07-30T02:21:24.057Z,926.87
2018-07-30T02:21:39.231Z,926.89
2018-07-30T02:21:52.542Z,926.89
2018-07-30T02:22:04.802Z,926.89
2018-07-30T02:22:17.167Z,926.9
2018-07-30T02:22:30.406Z,926.9
2018-07-30T02:22:43.707Z,926.89
2018-07-30T02:22:56.406Z,926.9
2018-07-30T02:23:09.876Z,926.88
2018-07-30T02:23:22.531Z,926.9
2018-07-30T02:23:35.154Z,926.91
2018-07-30T02:23:48.477Z,926.92
2018-07-30T02:24:00.928Z,926.91
2018-07-30T02:24:13.746Z,926.86
2018-07-30T02:24:26.971Z,926.92
2018-07-30T02:24:39.578Z,926.9
2018-07-30T02:24:52.324Z,926.89
2018-07-30T02:25:05.248Z,926.89
2018-07-30T02:25:17.993Z,926.88
2018-07-30T02:25:30.232Z,926.89
2018-07-30T02:25:43.730Z,926.88
2018-07-30T02:25:55.530Z,926.9
2018-07-30T02:26:07.696Z,926.92
2018-07-30T02:26:19.892Z,926.9
2018-07-30T02:26:32.962Z,926.88
2018-07-30T02:26:46.290Z,926.88
2018-07-30T02:26:59.298Z,926.89
2018-07-30T02:27:11.135Z,926.91
2018-07-30T02:27:24.238Z,926.88
2018-07-30T02:27:37.574Z,926.85
2018-07-30T02:27:50.679Z,926.9
2018-07-30T02:28:03.759Z,926.88
2018-07-30T02:28:17.076Z,926.88
2018-07-30T02:28:30.415Z,926.86
2018-07-30T02:28:42.562Z,926.86
2018-07-30T02:28:55.871Z,926.86
2018-07-30T02:29:08.517Z,926.86
2018-07-30T02:29:21.837Z,926.93
2018-07-30T02:29:35.757Z,926.92
2018-07-30T02:29:48.034Z,926.88
2018-07-30T02:30:01.527Z,926.88
2018-07-30T02:30:14.742Z,926.88
2018-07-30T02:30:27.525Z,926.88
2018-07-30T02:30:40.329Z,926.89
2018-07-30T02:30:53.684Z,926.89
2018-07-30T02:31:06.478Z,926.88
2018-07-30T02:31:19.698Z,926.86
2018-07-30T02:31:31.835Z,926.86
2018-07-30T02:31:44.973Z,926.88
2018-07-30T02:31:57.449Z,926.92
2018-07-30T02:32:10.558Z,926.89
2018-07-30T02:32:23.728Z,926.89
2018-07-30T02:32:36.033Z,926.9
2018-07-30T02:32:48.769Z,926.93
2018-07-30T02:33:02.042Z,926.89
2018-07-30T02:33:14.711Z,926.92
2018-07-30T02:33:28.009Z,926.91
2018-07-30T02:33:40.618Z,926.98
2018-07-30T02:33:54.110Z,926.94
2018-07-30T02:34:06.314Z,926.97
2018-07-30T02:34:19.108Z,927
2018-07-30T02:34:31.738Z,927
2018-07-30T02:34:45.028Z,926.99
2018-07-30T02:34:57.638Z,926.99
2018-07-30T02:35:09.300Z,926.99
2018-07-30T02:35:21.947Z,927
2018-07-30T02:35:35.038Z,926.98
2018-07-30T02:35:47.866Z,926.98
2018-07-30T02:36:01.061Z,926.96
2018-07-30T02:36:15.769Z,926.97
2018-07-30T02:36:28.529Z,926.97
2018-07-30T02:36:41.454Z,926.97
2018-07-30T02:36:54.175Z,926.95
2018-07-30T02:37:08.124Z,926.97
2018-07-30T02:37:21.218Z,926.95
2018-07-30T02:37:34.303Z,926.97
2018-07-30T02:37:47.110Z,926.93
2018-07-30T02:38:00.229Z,926.91
2018-07-30T02:38:13.560Z,926.91
2018-07-30T02:38:26.894Z,926.9
2018-07-30T02:38:39.520Z,926.94
2018-07-30T02:38:52.815Z,926.91
2018-07-30T02:39:05.068Z,926.86
2018-07-30T02:39:17.801Z,926.89
2018-07-30T02:39:30.924Z,926.91
2018-07-30T02:39:44.086Z,926.9
2018-07-30T02:39:56.841Z,926.93
2018-07-30T02:40:10.182Z,926.94
2018-07-30T02:40:23.040Z,926.89
2018-07-30T02:40:34.885Z,926.93
2018-07-30T02:40:47.980Z,926.87
2018-07-30T02:41:01.092Z,926.86
2018-07-30T02:41:14.177Z,926.88
2018-07-30T02:41:27.453Z,926.87
2018-07-30T02:41:40.162Z,926.88
2018-07-30T02:41:53.485Z,926.87
2018-07-30T02:42:05.835Z,926.87
2018-07-30T02:42:18.003Z,926.88